• Join FlightAware (Why Join?)
  • Login
  • US Flag 
10:23PM EDT


 

Airport Tracker/Info


-or-


 

Live Flight TrackerFlight Track Log ✈ UAL1259 ✈ 18-Apr-2013 ✈ KBWI - KORD

Flight Track Log - Related Links

Times and Time Zones

All times are in EDT time to prevent confusion due to time zone crossing. See the UAL1259 flight status page for this flight to view local times or setup timezone preferences in your user account.

Time Position Orientation Groundspeed Altitude Reporting Facility
EDT Latitude Longitude Course Direction KTS MPH feet Rate Location/Type
11:08AM 39.1380 -76.7290 315° West 273 314 3,800  Level FlightAware
11:08AM 39.1670 -76.7640 317° Northwest 274 315 5,200 2,940 Climbing FlightAware
11:09AM 39.1790 -76.7990 294° West 266 306 6,500 2,940 Climbing FlightAware
11:09AM 39.1900 -76.8430 288° West 269 310 7,900 2,580 Climbing FlightAware
11:10AM 39.2020 -76.8920 288° West 275 316 9,100 2,460 Climbing FlightAware
11:10AM 39.2140 -76.9570 283° West 279 321 10,800 1,680 Climbing FlightAware
11:11AM 39.2140 -77.0220 270° West 318 366 11,400 960 Climbing FlightAware
11:12AM 39.2130 -77.1140 269° West 358 412 12,200 1,200 Climbing FlightAware
11:12AM 39.2050 -77.1460 252° West 360 414 12,600 1,920 Climbing FlightAware
11:13AM 39.1790 -77.1850 229° Southwest 364 419 13,500 2,100 Climbing FlightAware
11:13AM 39.1130 -77.2410 213° Southwest 376 433 15,100 2,040 Climbing FlightAware
11:14AM 39.0580 -77.2870 213° Southwest 385 443 16,400 1,860 Climbing FlightAware
11:14AM 39.0150 -77.3350 221° Southwest 394 453 17,300 1,800 Climbing FlightAware
11:15AM 39.0010 -77.3920 252° West 397 457 18,100 1,680 Climbing FlightAware
11:16AM 38.9830 -77.4970 258° West 412 474 19,300 1,680 Climbing FlightAware
11:16AM 38.9650 -77.5950 257° West 416 479 20,500 1,800 Climbing FlightAware
11:17AM 38.9450 -77.6970 256° West 420 483 21,700 1,620 Climbing FlightAware
11:18AM 38.9260 -77.8050 257° West 427 491 22,800 1,380 Climbing FlightAware
11:18AM 38.9090 -77.9030 257° West 435 501 23,700 1,320 Climbing FlightAware
11:19AM 38.8890 -78.0140 257° West 440 506 24,700 1,260 Climbing FlightAware
11:20AM 38.8720 -78.1070 257° West 441 507 25,500 1,260 Climbing FlightAware
11:20AM 38.8550 -78.2170 259° West 448 516 26,400 1,020 Climbing FlightAware
11:21AM 38.8530 -78.3350 269° West 454 522 27,000 420 Climbing FlightAware
11:22AM 38.8520 -78.4430 269° West 455 524 27,000  Level FlightAware
11:23AM 38.8500 -78.5680 269° West 455 524 27,000 540 Level FlightAware
11:23AM 38.8490 -78.6740 269° West 455 524 27,800 1,260 Climbing FlightAware
11:24AM 38.8470 -78.7820 269° West 451 519 28,700 1,320 Climbing FlightAware
11:25AM 38.8450 -78.9090 269° West 448 516 29,700 1,200 Climbing FlightAware
11:25AM 38.8430 -79.0090 269° West 447 514 30,400 1,020 Climbing FlightAware
11:26AM 38.8420 -79.1150 269° West 447 514 31,100 1,020 Climbing FlightAware
11:27AM 38.8340 -79.2320 265° West 441 507 31,900 900 Climbing FlightAware
11:28AM 38.8020 -79.4120 257° West 439 505 33,000 660 Climbing FlightAware
11:30AM 38.7470 -79.7130 257° West 442 509 34,000 360 Climbing FlightAware
11:31AM 38.7230 -79.8450 257° West 440 506 34,000  Level FlightAware
11:31AM 38.7040 -79.9450 256° West 439 505 34,000  Level FlightAware
11:32AM 38.6850 -80.0470 257° West 436 502 34,000  Level FlightAware
11:33AM 38.6630 -80.1630 256° West 435 501 34,000  Level FlightAware
11:34AM 38.6450 -80.2620 257° West 435 501 34,000  Level FlightAware
11:34AM 38.6240 -80.3720 256° West 435 501 34,000  Level FlightAware
11:35AM 38.6050 -80.4730 256° West 435 501 34,000  Level FlightAware
11:36AM 38.5860 -80.5730 256° West 434 499 34,000  Level FlightAware
11:36AM 38.5640 -80.6860 256° West 434 499 34,000  Level FlightAware
11:37AM 38.5380 -80.8200 256° West 435 501 34,000  Level FlightAware
11:38AM 38.5190 -80.9190 256° West 434 499 34,000  Level FlightAware
11:39AM 38.4970 -81.0320 256° West 434 499 34,000  Level FlightAware
11:39AM 38.4780 -81.1300 256° West 435 501 34,000  Level FlightAware
11:40AM 38.4580 -81.2300 256° West 436 502 34,000  Level FlightAware
11:41AM 38.4350 -81.3460 256° West 437 503 34,000  Level FlightAware
11:41AM 38.4150 -81.4440 255° West 438 504 34,000  Level FlightAware
11:42AM 38.3930 -81.5560 256° West 442 509 34,000  Level FlightAware
11:43AM 38.3730 -81.6560 256° West 446 513 34,000  Level FlightAware
11:44AM 38.3480 -81.7730 255° West 446 513 34,000  Level FlightAware
11:44AM 38.3210 -81.8720 251° West 448 516 34,000  Level FlightAware
11:45AM 38.2930 -81.9730 251° West 449 517 34,000  Level FlightAware
11:46AM 38.2620 -82.0810 250° West 452 520 34,000  Level FlightAware
11:46AM 38.2340 -82.1830 251° West 453 521 34,000  Level FlightAware
11:47AM 38.2010 -82.2990 250° West 453 521 34,000  Level FlightAware
11:48AM 38.1730 -82.3960 250° West 453 521 34,000  Level FlightAware
11:48AM 38.1440 -82.4980 250° West 454 522 34,000  Level FlightAware
11:49AM 38.1130 -82.6060 250° West 455 524 34,000  Level FlightAware
11:50AM 38.0974 -82.6600 250° West 455 524 34,000  Level FlightAware ADS-B
11:50AM 38.0739 -82.7414 250° West 454 522 34,000  Level FlightAware ADS-B
11:51AM 38.0372 -82.8682 250° West 452 520 34,000  Level FlightAware ADS-B
11:52AM 38.0099 -82.9620 250° West 451 519 34,000  Level FlightAware ADS-B
11:53AM 37.9690 -83.0950 249° West 451 519 34,000  Level FlightAware
11:53AM 37.9430 -83.1790 249° West 451 519 34,000  Level FlightAware
11:54AM 37.9180 -83.2630 249° West 451 519 34,000  Level FlightAware
11:55AM 37.8930 -83.3470 249° West 451 519 34,000  Level FlightAware
11:55AM 37.8670 -83.4310 249° West 451 519 34,000  Level FlightAware
11:56AM 37.8350 -83.5360 249° West 451 519 34,000  Level FlightAware
11:57AM 37.7958 -83.6869 252° West 447 514 34,000 -480 Level FlightAware ADS-B
11:58AM 37.7479 -83.8467 249° West 438 504 33,400 -540 Descending FlightAware ADS-B
11:58AM 37.7148 -83.9560 249° West 444 511 33,000 -360 Descending FlightAware ADS-B
11:59AM 37.6910 -84.0353 249° West 444 511 33,000 -540 Level FlightAware ADS-B
12:00PM 37.6643 -84.1232 249° West 444 511 32,400 -960 Descending FlightAware ADS-B
12:00PM 37.6350 -84.2200 249° West 455 524 31,800 -960 Descending FlightAware
12:01PM 37.6040 -84.3200 249° West 458 527 31,100 -600 Descending FlightAware
12:02PM 37.5650 -84.4440 248° West 457 526 30,900 -180 Descending FlightAware
12:02PM 37.5380 -84.5280 248° West 457 526 30,900  Level FlightAware
12:03PM 37.5110 -84.6120 248° West 457 526 30,900 -1,380 Level FlightAware
12:04PM 37.4710 -84.7500 250° West 433 498 29,000 -1,380 Descending FlightAware
12:05PM 37.4403 -84.8493 249° West 432 497 29,000  Level FlightAware ADS-B
12:05PM 37.4148 -84.9311 249° West 432 497 29,000  Level FlightAware ADS-B
12:06PM 37.3895 -85.0119 249° West 430 495 29,000  Level FlightAware ADS-B
12:06PM 37.3669 -85.0839 248° West 427 491 29,000  Level FlightAware ADS-B
12:07PM 37.3421 -85.1629 248° West 423 487 29,000  Level FlightAware ADS-B
12:07PM 37.3169 -85.2426 248° West 421 484 29,000  Level FlightAware ADS-B
12:08PM 37.2887 -85.3315 248° West 420 483 29,000  Level FlightAware ADS-B
12:09PM 37.2655 -85.4042 248° West 420 483 29,000  Level FlightAware ADS-B
12:09PM 37.2335 -85.5048 248° West 419 482 29,000  Level FlightAware ADS-B
12:10PM 37.2117 -85.5730 248° West 419 482 29,000  Level FlightAware ADS-B
12:10PM 37.1894 -85.6424 248° West 419 482 29,000  Level FlightAware ADS-B
12:11PM 37.1648 -85.7182 248° West 418 481 29,000  Level FlightAware ADS-B
12:12PM 37.1280 -85.8320 248° West 418 481 29,000  Level FlightAware
12:13PM 37.0880 -85.9570 248° West 423 487 29,000 360 Level FlightAware
12:13PM 37.0540 -86.0600 248° West 426 490 29,600 660 Climbing FlightAware
12:14PM 37.0240 -86.1530 248° West 427 491 30,000 300 Climbing FlightAware
12:15PM 36.9940 -86.2440 248° West 436 502 30,000  Level FlightAware
12:16PM 36.9630 -86.3390 248° West 436 502 30,000  Level FlightAware
12:16PM 36.9250 -86.4540 248° West 437 503 30,000  Level FlightAware
12:17PM 36.8920 -86.5470 246° West 438 504 30,000  Level FlightAware
12:18PM 36.8610 -86.6300 245° Southwest 438 504 30,000  Level FlightAware
12:18PM 36.8220 -86.7410 246° West 439 505 30,000  Level FlightAware
12:19PM 36.7880 -86.8340 245° Southwest 438 504 30,000  Level FlightAware
12:20PM 36.7550 -86.9240 245° Southwest 438 504 30,000  Level FlightAware
12:20PM 36.7170 -87.0300 246° West 438 504 30,000  Level FlightAware
12:21PM 36.6830 -87.1220 245° Southwest 438 504 30,000  Level FlightAware
12:22PM 36.6460 -87.2220 245° Southwest 438 504 30,000  Level FlightAware
12:23PM 36.6130 -87.3130 246° West 437 503 30,000  Level FlightAware
12:23PM 36.5800 -87.4040 246° West 436 502 30,000  Level FlightAware
12:24PM 36.5400 -87.5110 245° Southwest 437 503 30,000  Level FlightAware
12:25PM 36.5060 -87.6020 245° Southwest 439 505 30,000  Level FlightAware
12:25PM 36.4720 -87.6950 246° West 440 506 30,000  Level FlightAware
12:26PM 36.4350 -87.7940 245° Southwest 439 505 30,000  Level FlightAware
12:27PM 36.4000 -87.8860 245° Southwest 436 502 30,000  Level FlightAware
12:27PM 36.3620 -87.9890 245° Southwest 434 499 30,000  Level FlightAware
12:28PM 36.3270 -88.0800 245° Southwest 434 499 30,000  Level FlightAware
12:29PM 36.3000 -88.1490 244° Southwest 434 499 30,000  Level FlightAware
12:30PM 36.2560 -88.2690 246° West 434 499 30,000  Level FlightAware
12:30PM 36.2230 -88.3540 244° Southwest 434 499 30,000  Level FlightAware
12:31PM 36.1930 -88.4300 244° Southwest 434 499 30,000  Level FlightAware
12:32PM 36.1550 -88.5250 244° Southwest 434 499 30,000  Level FlightAware
12:32PM 36.1250 -88.6010 244° Southwest 434 499 30,000  Level FlightAware
12:33PM 36.0950 -88.6770 244° Southwest 434 499 30,000  Level FlightAware
12:34PM 36.0660 -88.7530 245° Southwest 434 499 30,000  Level FlightAware
12:35PM 36.1450 -89.0103 245° Southwest 419 482 30,000  Level Memphis Center
12:36PM 36.1278 -89.1517 261° West 425 489 30,000  Level Memphis Center
12:37PM 36.1103 -89.2986 262° West 430 495 30,000  Level Memphis Center
12:38PM 36.0947 -89.4478 263° West 430 495 30,000  Level Memphis Center
12:39PM 36.0811 -89.5761 263° West 430 495 30,000  Level Memphis Center
12:40PM 36.0631 -89.7203 261° West 425 489 30,000  Level Memphis Center
12:41PM 36.0492 -89.8564 263° West 425 489 30,000  Level Memphis Center
12:42PM 36.0331 -89.9975 262° West 425 489 30,000  Level Memphis Center
12:43PM 36.0167 -90.1389 262° West 425 489 30,000  Level Memphis Center
12:44PM 36.0000 -90.2750 261° West 425 489 30,000  Level Memphis Center
12:45PM 35.9833 -90.4158 262° West 420 483 30,000  Level Memphis Center
12:46PM 35.9667 -90.5519 261° West 420 483 30,000  Level Memphis Center
12:47PM 35.9497 -90.6878 261° West 409 471 30,000  Level Memphis Center
12:48PM 35.9325 -90.8261 261° West 409 471 30,000  Level Memphis Center
12:49PM 35.9153 -90.9619 261° West 409 471 30,000  Level Memphis Center
12:50PM 35.9000 -91.0950 262° West 404 465 30,000  Level Memphis Center
12:51PM 35.8803 -91.2331 260° West 410 472 30,000  Level Memphis Center
12:52PM 35.8625 -91.3714 261° West 410 472 30,000  Level Memphis Center
12:53PM 35.8489 -91.5044 263° West 410 472 30,000  Level Memphis Center
12:54PM 35.8308 -91.6422 261° West 410 472 30,000  Level Memphis Center
12:55PM 35.8692 -91.7736 290° West 395 455 30,000  Level Memphis Center
12:56PM 35.9661 -91.8625 323° Northwest 389 448 30,000  Level Memphis Center
12:57PM 36.0714 -91.9517 326° Northwest 412 474 30,000  Level Memphis Center
12:58PM 36.1808 -92.0361 328° Northwest 443 510 30,000  Level Memphis Center
12:59PM 36.2878 -92.1258 326° Northwest 464 534 30,000  Level Memphis Center
01:00PM 36.3972 -92.2158 327° Northwest 470 541 30,000  Level Memphis Center
01:01PM 36.5081 -92.3114 325° Northwest 475 547 30,000  Level Memphis Center
01:03PM 36.7078 -92.4739 327° Northwest 479 551 30,000  Level Kansas City Center
01:04PM 36.8189 -92.5678 326° Northwest 481 554 30,000  Level Kansas City Center
01:05PM 36.9572 -92.6758 328° Northwest 493 567 30,000  Level Kansas City Center
01:06PM 37.1025 -92.6639 North 522 601 30,000  Level Kansas City Center
01:07PM 37.2397 -92.5844 25° Northeast 536 617 30,000  Level Kansas City Center
01:08PM 37.3744 -92.5011 26° Northeast 536 617 30,000 240 Level Kansas City Center
01:09PM 37.5078 -92.4208 26° Northeast 533 613 30,600 480 Climbing Kansas City Center
01:10PM 37.6439 -92.3417 25° Northeast 537 618 31,000 180 Climbing Kansas City Center
01:11PM 37.7819 -92.2583 25° Northeast 536 617 31,000  Level Kansas City Center
01:12PM 37.9142 -92.1761 26° Northeast 532 612 31,000  Level Kansas City Center
01:13PM 38.0500 -92.0986 24° Northeast 535 616 31,000  Level Kansas City Center
01:14PM 38.2017 -92.0089 25° Northeast 536 617 31,000  Level Kansas City Center
01:15PM 38.3378 -91.9269 25° Northeast 539 620 31,000 -420 Level Kansas City Center
01:16PM 38.4736 -91.8447 25° Northeast 539 620 30,200 -900 Descending Kansas City Center
01:17PM 38.6086 -91.7622 26° Northeast 538 619 29,200 -600 Descending Kansas City Center
01:18PM 38.7544 -91.6728 26° Northeast 535 616 29,000 -120 Descending Kansas City Center
01:19PM 38.8897 -91.5903 25° Northeast 536 617 29,000  Level Kansas City Center
01:20PM 39.0253 -91.5064 26° Northeast 538 619 29,000  Level Kansas City Center
01:21PM 39.1528 -91.4019 32° Northeast 541 623 29,000  Level Kansas City Center
01:22PM 39.2797 -91.2914 34° Northeast 545 627 29,000  Level Kansas City Center
01:23PM 39.4319 -91.1572 34° Northeast 549 632 29,000  Level Kansas City Center
01:24PM 39.5586 -91.0447 34° Northeast 550 633 29,000  Level Kansas City Center
01:25PM 39.6850 -90.9333 34° Northeast 549 632 29,000  Level Kansas City Center
01:26PM 39.7922 -90.8400 34° Northeast 529 609 29,000  Level Kansas City Center
01:27PM 39.9333 -90.7122 35° Northeast 517 595 29,000  Level Kansas City Center
01:33PM 40.5920 -90.0840 35° Northeast 509 586 29,000  Level FlightAware
01:34PM 40.6560 -89.9900 48° Northeast 511 588 29,000 -360 Level FlightAware
01:34PM 40.7250 -89.8890 48° Northeast 509 586 28,500 -900 Descending FlightAware
01:35PM 40.7880 -89.7950 48° Northeast 502 578 27,800 -1,020 Descending FlightAware
01:36PM 40.8570 -89.6950 48° Northeast 493 567 27,100 -1,080 Descending FlightAware
01:37PM 40.9150 -89.6080 49° Northeast 488 562 26,300 -1,740 Descending FlightAware
01:37PM 40.9840 -89.5050 48° Northeast 481 554 24,700 -2,220 Descending FlightAware
01:38PM 41.0450 -89.4150 48° Northeast 480 552 23,200 -2,280 Descending FlightAware
01:39PM 41.1100 -89.3160 49° Northeast 468 539 21,500 -2,100 Descending FlightAware
01:39PM 41.1650 -89.2350 48° Northeast 447 514 20,300 -1,980 Descending FlightAware
01:40PM 41.2190 -89.1550 48° Northeast 434 499 18,900 -1,980 Descending FlightAware
01:41PM 41.2770 -89.0650 49° Northeast 419 482 17,500 -1,980 Descending FlightAware
01:41PM 41.3280 -88.9880 49° Northeast 408 470 16,100 -2,040 Descending FlightAware
01:42PM 41.3770 -88.9140 49° Northeast 395 455 14,800 -1,920 Descending FlightAware
01:43PM 41.4300 -88.8350 48° Northeast 383 441 13,400 -1,920 Descending FlightAware
01:44PM 41.4770 -88.7620 49° Northeast 377 434 12,100 -1,620 Descending FlightAware
01:44PM 41.5170 -88.6930 52° Northeast 357 411 11,300 -720 Descending FlightAware
01:45PM 41.5510 -88.6090 62° Northeast 315 362 11,100 -780 Descending FlightAware
01:46PM 41.5770 -88.5440 62° Northeast 310 357 10,200 -1,560 Descending FlightAware
01:46PM 41.5990 -88.4910 61° Northeast 311 358 9,300 -1,620 Descending FlightAware
01:47PM 41.6220 -88.4440 57° Northeast 313 360 8,600 -1,560 Descending FlightAware
01:47PM 41.6440 -88.4070 51° Northeast 314 361 7,900 -1,440 Descending FlightAware
01:48PM 41.6710 -88.3600 52° Northeast 317 365 7,300 -660 Descending FlightAware
01:48PM 41.6950 -88.3200 51° Northeast 315 362 7,300  Level FlightAware
01:48PM 41.7080 -88.2970 53° Northeast 314 361 7,300  Level FlightAware
01:49PM 41.7330 -88.2540 52° Northeast 311 358 7,300  Level FlightAware
01:49PM 41.7570 -88.2130 52° Northeast 313 360 7,300  Level FlightAware
01:50PM 41.7830 -88.1680 52° Northeast 312 359 7,300  Level FlightAware
01:50PM 41.8100 -88.1220 52° Northeast 310 357 7,300  Level FlightAware
01:51PM 41.8310 -88.0860 52° Northeast 310 357 7,300  Level FlightAware
01:51PM 41.8560 -88.0400 54° Northeast 292 336 7,300  Level FlightAware
01:51PM 41.8680 -88.0180 54° Northeast 281 323 7,300  Level FlightAware
01:52PM 41.8820 -87.9790 64° Northeast 270 311 7,300  Level FlightAware
01:52PM 41.8840 -87.9560 83° East 262 302 7,300  Level FlightAware
01:52PM 41.8840 -87.9070 90° East 263 303 7,300  Level FlightAware
01:53PM 41.8840 -87.9010 90° East 263 303 7,300  Level FlightAware
01:53PM 41.8840 -87.8580 90° East 261 300 7,300  Level FlightAware
01:54PM 41.8840 -87.7940 90° East 261 300 7,300 -240 Level FlightAware
01:54PM 41.8840 -87.7530 90° East 262 302 7,100 -780 Descending FlightAware
01:55PM 41.8840 -87.7060 90° East 264 304 6,600 -1,080 Descending FlightAware
01:55PM 41.8840 -87.6790 90° East 266 306 6,300 -960 Descending FlightAware
01:55PM 41.8840 -87.6330 90° East 266 306 5,900 -900 Descending FlightAware
01:56PM 41.8840 -87.5700 90° East 261 300 5,300 -600 Descending FlightAware
01:56PM 41.8840 -87.5300 90° East 259 298 5,300  Level FlightAware
01:57PM 41.8840 -87.4820 90° East 262 302 5,300  Level FlightAware
01:58PM 41.8830 -87.4150 91° East 261 300 5,300  Level FlightAware
01:58PM 41.8830 -87.3470 90° East 258 297 5,300 60 Level FlightAware
01:58PM 41.8830 -87.3250 90° East 257 296 5,400 120 Climbing FlightAware
01:59PM 41.8960 -87.2830 67° East 259 298 5,400 -180 Level FlightAware
01:59PM 41.9120 -87.2710 29° Northeast 262 302 5,300 -300 Descending FlightAware
01:59PM 41.9190 -87.2700 North 259 298 5,300  Level FlightAware
02:00PM 41.9500 -87.2970 327° Northwest 221 254 5,300  Level FlightAware
02:00PM 41.9570 -87.3150 298° West 216 249 5,300  Level FlightAware
02:01PM 41.9650 -87.3430 291° West 204 235 5,300  Level FlightAware
02:01PM 41.9670 -87.3600 279° West 200 230 5,300  Level FlightAware
02:01PM 41.9690 -87.4020 274° West 217 250 5,300  Level FlightAware
02:02PM 41.9690 -87.4400 270° West 188 216 5,300  Level FlightAware
02:02PM 41.9690 -87.4650 270° West 160 184 5,300  Level FlightAware
02:03PM 41.9690 -87.4940 270° West 151 174 5,300  Level FlightAware
02:03PM 41.9690 -87.5170 270° West 153 176 5,300  Level FlightAware
02:04PM 41.9690 -87.5420 270° West 154 177 5,300  Level FlightAware
02:04PM 41.9690 -87.5730 270° West 155 178 5,300 -240 Level FlightAware
02:05PM 41.9690 -87.5960 270° West 155 178 5,100 -780 Descending FlightAware
02:05PM 41.9690 -87.6100 270° West 157 181 4,800 -780 Descending FlightAware
02:05PM 41.9690 -87.6320 270° West 155 178 4,600 -720 Descending FlightAware
02:06PM 41.9690 -87.6670 270° West 152 175 4,100 -900 Descending FlightAware
02:06PM 41.9690 -87.6920 270° West 157 181 3,700 -900 Descending FlightAware
02:06PM 41.9690 -87.7030 270° West 153 176 3,600 -960 Descending FlightAware
02:07PM 41.9690 -87.7400 270° West 157 181 3,000 -840 Descending FlightAware
02:07PM 41.9690 -87.7520 270° West 153 176 2,900 -720 Descending FlightAware
02:08PM 41.9690 -87.7850 270° West 144 166 2,400 -840 Descending FlightAware
02:08PM 41.9690 -87.8110 270° West 142 163 2,000 -720 Descending FlightAware
02:09PM 41.9690 -87.8300 270° West 148 170 1,800 -840 Descending FlightAware
02:09PM 41.9690 -87.8530 270° West 151 174 1,400 -840 Descending FlightAware
02:10PM 41.9690 -87.8860 270° West 156 180 1,000 -420 Descending FlightAware
02:10PM 41.9690 -87.9080 270° West 156 180 1,000  Level FlightAware